Terminal Aerodrome Forecast
Issued by NWS Dallas/Fort Worth, TX

Home | Current Version | Previous Version | Text Only | Print | Product List | Glossary On
Versions: 1 2 3 4 5 6 7 8 9 10 11 12 13 14 15 16 17 18 19 20 21 22 23 24 25 26 27 28 29 30 31 32 33 34 35
000
FTUS44 KFWD 290913 AAA
TAFDFW
TAF AMD
KDFW 290913Z 2909/3012 34006KT P6SM FEW150 OVC300
     FM291500 04007KT P6SM FEW080 BKN300
     FM300100 11006KT P6SM SCT090=

USA.gov is the U.S. government's official web portal to all federal, state and local government web resources and services.